createdAt,value
2018-01-06T00:02:26.228Z,97829.28
2018-01-06T00:04:54.482Z,97833.41
2018-01-06T00:07:22.787Z,97836.52
2018-01-06T00:09:51.097Z,97827.91
2018-01-06T00:12:19.402Z,97829.92
2018-01-06T00:14:47.678Z,97824.12
2018-01-06T00:17:15.955Z,97832.34
2018-01-06T00:19:44.267Z,97814.40
2018-01-06T00:22:12.521Z,97828.05
2018-01-06T00:24:40.836Z,97831.84
2018-01-06T00:27:09.107Z,97835.17
2018-01-06T00:29:37.440Z,97833.81
2018-01-06T00:32:05.891Z,97832.63
2018-01-06T00:34:34.256Z,97835.56
2018-01-06T00:37:02.786Z,97841.73
2018-01-06T00:39:32.343Z,97842.07
2018-01-06T00:42:01.728Z,97847.57
2018-01-06T00:44:30.887Z,97851.10
2018-01-06T00:46:59.179Z,97850.75
2018-01-06T00:49:27.452Z,97839.73
2018-01-06T00:51:55.804Z,97845.60
2018-01-06T00:54:24.152Z,97835.30
2018-01-06T00:56:52.492Z,97835.30
2018-01-06T00:59:20.759Z,97843.83
2018-01-06T01:01:49.113Z,97843.56
2018-01-06T01:04:17.387Z,97845.28
2018-01-06T01:06:45.690Z,97851.05
2018-01-06T01:09:13.971Z,97851.87
2018-01-06T01:11:42.262Z,97857.71
2018-01-06T01:14:10.549Z,97848.91
2018-01-06T01:16:38.891Z,97863.43
2018-01-06T01:19:07.170Z,97865.91
2018-01-06T01:21:35.502Z,97861.72
2018-01-06T01:24:03.745Z,97864.39
2018-01-06T01:26:32.099Z,97860.11
2018-01-06T01:29:00.405Z,97847.17
2018-01-06T01:31:28.664Z,97851.42
2018-01-06T01:33:56.959Z,97845.13
2018-01-06T01:36:25.214Z,97856.94
2018-01-06T01:38:53.529Z,97849.58
2018-01-06T01:41:21.820Z,97852.08
2018-01-06T01:43:50.140Z,97862.67
2018-01-06T01:46:18.408Z,97857.89
2018-01-06T01:48:46.704Z,97869.21
2018-01-06T01:51:14.987Z,97866.17
2018-01-06T01:53:43.303Z,97863.50
2018-01-06T01:56:11.569Z,97843.70
2018-01-06T01:58:40.809Z,97863.07
2018-01-06T02:01:09.295Z,97863.27
2018-01-06T02:03:37.555Z,97868.84
2018-01-06T02:06:05.851Z,97865.34
2018-01-06T02:08:34.111Z,97866.66
2018-01-06T02:11:02.419Z,97867.85
2018-01-06T02:13:30.669Z,97859.42
2018-01-06T02:15:58.974Z,97864.67
2018-01-06T02:18:27.538Z,97863.95
2018-01-06T02:20:55.838Z,97862.77
2018-01-06T02:23:24.109Z,97861.58
2018-01-06T02:25:52.436Z,97857.66
2018-01-06T02:28:21.594Z,97854.45
2018-01-06T02:30:49.928Z,97854.55
2018-01-06T02:33:19.021Z,97845.84
2018-01-06T02:35:47.343Z,97846.60
2018-01-06T02:38:15.652Z,97856.61
2018-01-06T02:40:43.926Z,97834.63
2018-01-06T02:43:12.342Z,97841.69
2018-01-06T02:45:41.359Z,97842.61
2018-01-06T02:48:09.652Z,97844.09
2018-01-06T02:50:37.908Z,97832.05
2018-01-06T02:53:06.203Z,97845.84
2018-01-06T02:55:34.477Z,97849.61
2018-01-06T02:58:03.107Z,97846.70
2018-01-06T03:00:31.401Z,97839.77
2018-01-06T03:02:59.684Z,97833.56
2018-01-06T03:05:27.958Z,97831.09
2018-01-06T03:07:56.247Z,97829.77
2018-01-06T03:10:24.595Z,97833.77
2018-01-06T03:12:52.885Z,97846.97
2018-01-06T03:15:21.183Z,97848.98
2018-01-06T03:17:49.450Z,97845.73
2018-01-06T03:20:17.727Z,97847.69
2018-01-06T03:22:46.005Z,97838.60
2018-01-06T03:25:14.341Z,97827.55
2018-01-06T03:27:42.607Z,97836.83
2018-01-06T03:30:10.972Z,97845.97
2018-01-06T03:32:39.232Z,97839.19
2018-01-06T03:35:07.528Z,97830.38
2018-01-06T03:37:36.037Z,97828.00
2018-01-06T03:40:04.665Z,97825.89
2018-01-06T03:42:32.948Z,97829.89
2018-01-06T03:45:01.235Z,97823.03
2018-01-06T03:47:29.499Z,97832.53
2018-01-06T03:49:57.752Z,97833.45
2018-01-06T03:52:26.037Z,97834.97
2018-01-06T03:54:55.164Z,97838.44
2018-01-06T03:57:23.464Z,97838.64
2018-01-06T03:59:51.750Z,97835.08
2018-01-06T04:02:20.076Z,97822.58
2018-01-06T04:04:48.364Z,97834.66
2018-01-06T04:07:16.665Z,97842.74
2018-01-06T04:09:44.903Z,97834.82
2018-01-06T04:12:13.707Z,97839.60
2018-01-06T04:14:41.971Z,97843.33
2018-01-06T04:17:10.248Z,97841.05
2018-01-06T04:19:38.560Z,97843.53
2018-01-06T04:22:06.831Z,97832.58
2018-01-06T04:24:35.128Z,97846.42
2018-01-06T04:27:03.440Z,97838.95
2018-01-06T04:29:32.144Z,97844.86
2018-01-06T04:32:00.395Z,97844.23
2018-01-06T04:34:28.703Z,97848.67
2018-01-06T04:36:56.980Z,97848.17
2018-01-06T04:39:25.342Z,97854.11
2018-01-06T04:41:53.602Z,97841.67
2018-01-06T04:44:21.891Z,97855.27
2018-01-06T04:46:50.359Z,97854.08
2018-01-06T04:49:19.207Z,97849.36
2018-01-06T04:51:47.518Z,97832.97
2018-01-06T04:54:16.504Z,97854.48
2018-01-06T04:56:44.810Z,97852.02
2018-01-06T04:59:13.089Z,97857.78
2018-01-06T05:01:41.384Z,97859.73
2018-01-06T05:04:10.352Z,97861.06
2018-01-06T05:06:38.648Z,97867.95
2018-01-06T05:09:06.903Z,97876.05
2018-01-06T05:11:35.215Z,97877.62
2018-01-06T05:14:04.183Z,97864.00
2018-01-06T05:16:32.586Z,97867.53
2018-01-06T05:19:00.836Z,97868.95
2018-01-06T05:21:29.112Z,97866.41
2018-01-06T05:23:57.419Z,97858.32
2018-01-06T05:26:25.695Z,97850.41
2018-01-06T05:28:54.751Z,97860.70
2018-01-06T05:31:23.034Z,97860.03
2018-01-06T05:33:51.355Z,97855.09
2018-01-06T05:36:19.673Z,97851.88
2018-01-06T05:38:48.587Z,97856.54
2018-01-06T05:41:16.858Z,97854.39
2018-01-06T05:43:45.138Z,97850.86
2018-01-06T05:46:13.482Z,97859.94
2018-01-06T05:48:42.056Z,97871.92
2018-01-06T05:51:10.990Z,97869.91
2018-01-06T05:53:39.812Z,97862.05
2018-01-06T05:56:08.118Z,97866.53
2018-01-06T05:58:37.041Z,97872.84
2018-01-06T06:01:05.319Z,97782.58
2018-01-06T06:03:33.620Z,97875.17
2018-01-06T06:06:01.955Z,97886.53
2018-01-06T06:08:30.778Z,97876.86
2018-01-06T06:10:59.040Z,97875.19
2018-01-06T06:13:28.356Z,97864.79
2018-01-06T06:15:56.684Z,97862.31
2018-01-06T06:18:24.943Z,97872.78
2018-01-06T06:20:53.261Z,97881.09
2018-01-06T06:23:21.560Z,97884.56
2018-01-06T06:25:49.824Z,97884.33
2018-01-06T06:28:18.936Z,97890.00
2018-01-06T06:30:47.207Z,97879.86
2018-01-06T06:33:15.508Z,97873.86
2018-01-06T06:35:43.804Z,97882.23
2018-01-06T06:38:12.819Z,97876.95
2018-01-06T06:40:41.220Z,97878.83
2018-01-06T06:43:09.508Z,97880.58
2018-01-06T06:45:37.777Z,97874.05
2018-01-06T06:48:06.075Z,97881.20
2018-01-06T06:50:34.347Z,97888.45
2018-01-06T06:53:02.635Z,97886.12
2018-01-06T06:55:30.893Z,97886.27
2018-01-06T06:57:59.184Z,97871.99
2018-01-06T07:00:27.473Z,97868.22
2018-01-06T07:02:55.803Z,97888.70
2018-01-06T07:05:24.087Z,97882.52
2018-01-06T07:07:52.361Z,97894.39
2018-01-06T07:10:20.643Z,97900.23
2018-01-06T07:12:48.929Z,97911.83
2018-01-06T07:15:17.223Z,97920.90
2018-01-06T07:17:45.492Z,97911.59
2018-01-06T07:20:13.788Z,97909.38
2018-01-06T07:22:42.066Z,97915.56
2018-01-06T07:25:10.386Z,97916.80
2018-01-06T07:27:38.695Z,97924.01
2018-01-06T07:30:06.972Z,97919.78
2018-01-06T07:32:35.321Z,97932.42
2018-01-06T07:35:04.454Z,97937.48
2018-01-06T07:37:32.744Z,97944.11
2018-01-06T07:40:00.992Z,97939.25
2018-01-06T07:42:29.280Z,97940.70
2018-01-06T07:44:57.551Z,97946.95
2018-01-06T07:47:26.473Z,97949.23
2018-01-06T07:49:54.732Z,97951.55
2018-01-06T07:52:23.064Z,97963.30
2018-01-06T07:54:51.384Z,97969.75
2018-01-06T07:57:19.654Z,97975.43
2018-01-06T07:59:48.218Z,97976.33
2018-01-06T08:02:16.492Z,97987.65
2018-01-06T08:04:44.794Z,97973.21
2018-01-06T08:07:13.054Z,97985.86
2018-01-06T08:09:41.357Z,97988.81
2018-01-06T08:12:09.732Z,97985.80
2018-01-06T08:14:38.006Z,97984.84
2018-01-06T08:17:06.274Z,97985.09
2018-01-06T08:19:34.561Z,97987.04
2018-01-06T08:22:02.845Z,97977.38
2018-01-06T08:24:31.641Z,97976.69
2018-01-06T08:27:00.734Z,97985.91
2018-01-06T08:29:29.008Z,97992.25
2018-01-06T08:31:57.302Z,97986.73
2018-01-06T08:34:25.563Z,97988.95
2018-01-06T08:36:53.872Z,97988.59
2018-01-06T08:39:22.145Z,97992.33
2018-01-06T08:41:50.461Z,97993.30
2018-01-06T08:44:18.744Z,97996.50
2018-01-06T08:46:47.043Z,97999.43
2018-01-06T08:49:15.343Z,98002.39
2018-01-06T08:51:43.673Z,98000.55
2018-01-06T08:54:12.025Z,98003.77
2018-01-06T08:56:40.381Z,98001.27
2018-01-06T08:59:08.668Z,98003.58
2018-01-06T09:01:36.954Z,98009.44
2018-01-06T09:04:05.302Z,98010.13
2018-01-06T09:06:33.566Z,97996.42
2018-01-06T09:09:01.867Z,98006.73
2018-01-06T09:11:30.160Z,98015.91
2018-01-06T09:13:58.473Z,98015.53
2018-01-06T09:16:26.743Z,98021.19
2018-01-06T09:18:55.044Z,98016.80
2018-01-06T09:21:23.340Z,98022.45
2018-01-06T09:23:51.700Z,98027.41
2018-01-06T09:26:19.964Z,98039.30
2018-01-06T09:28:48.268Z,98036.36
2018-01-06T09:31:17.032Z,98033.32
2018-01-06T09:33:45.321Z,98028.53
2018-01-06T09:36:13.619Z,98030.22
2018-01-06T09:38:41.929Z,98033.09
2018-01-06T09:41:10.262Z,98039.70
2018-01-06T09:43:38.502Z,98042.44
2018-01-06T09:46:06.821Z,98042.17
2018-01-06T09:48:35.061Z,98042.14
2018-01-06T09:51:04.123Z,98043.14
2018-01-06T09:53:32.486Z,98048.36
2018-01-06T09:56:00.728Z,98049.03
2018-01-06T09:58:29.034Z,98043.77
2018-01-06T10:00:57.328Z,98040.73
2018-01-06T10:03:25.633Z,98044.63
2018-01-06T10:05:53.969Z,98045.92
2018-01-06T10:08:22.757Z,98038.95
2018-01-06T10:10:51.360Z,98041.66
2018-01-06T10:13:19.944Z,98038.32
2018-01-06T10:15:48.295Z,98042.16
2018-01-06T10:18:16.609Z,98045.69
2018-01-06T10:20:44.882Z,98042.38
2018-01-06T10:23:13.160Z,98043.74
2018-01-06T10:25:41.475Z,98038.69
2018-01-06T10:28:09.802Z,98041.39
2018-01-06T10:30:38.108Z,98037.97
2018-01-06T10:33:06.369Z,98033.91
2018-01-06T10:35:34.647Z,98038.84
2018-01-06T10:38:02.911Z,98038.86
2018-01-06T10:40:31.203Z,98039.66
2018-01-06T10:42:59.496Z,98028.66
2018-01-06T10:45:27.759Z,98043.61
2018-01-06T10:47:56.095Z,98046.71
2018-01-06T10:50:24.332Z,98039.14
2018-01-06T10:52:52.801Z,98031.71
2018-01-06T10:55:21.046Z,98033.93
2018-01-06T10:57:49.440Z,98039.71
2018-01-06T11:00:17.697Z,98036.70
2018-01-06T11:02:45.985Z,98032.95
2018-01-06T11:05:14.683Z,98036.66
2018-01-06T11:07:42.999Z,98023.54
2018-01-06T11:10:11.293Z,98032.25
2018-01-06T11:12:40.308Z,98031.04
2018-01-06T11:15:08.637Z,98030.83
2018-01-06T11:17:37.015Z,98027.52
2018-01-06T11:20:05.527Z,98024.50
2018-01-06T11:22:33.771Z,98008.03
2018-01-06T11:25:02.083Z,98010.49
2018-01-06T11:27:30.364Z,98010.69
2018-01-06T11:29:58.730Z,98014.61
2018-01-06T11:32:27.037Z,98014.88
2018-01-06T11:34:55.942Z,98014.05
2018-01-06T11:37:24.215Z,98013.23
2018-01-06T11:39:52.570Z,98018.17
2018-01-06T11:42:20.872Z,98014.25
2018-01-06T11:44:49.269Z,98009.64
2018-01-06T11:47:17.533Z,98018.77
2018-01-06T11:49:46.090Z,98018.11
2018-01-06T11:52:14.470Z,98015.14
2018-01-06T11:54:42.730Z,98018.17
2018-01-06T11:57:11.114Z,98012.20
2018-01-06T11:59:39.464Z,98010.83
2018-01-06T12:02:07.969Z,97997.54
2018-01-06T12:04:36.289Z,98008.80
2018-01-06T12:07:04.939Z,98015.33
2018-01-06T12:09:33.252Z,98010.64
2018-01-06T12:12:01.566Z,98010.13
2018-01-06T12:14:29.813Z,98002.70
2018-01-06T12:16:58.158Z,97994.15
2018-01-06T12:19:26.462Z,97989.02
2018-01-06T12:21:54.743Z,97987.75
2018-01-06T12:24:23.059Z,97981.66
2018-01-06T12:26:51.300Z,97988.86
2018-01-06T12:29:19.623Z,97984.05
2018-01-06T12:31:47.961Z,97973.45
2018-01-06T12:34:16.264Z,97983.38
2018-01-06T12:36:44.527Z,97981.45
2018-01-06T12:39:12.812Z,97979.98
2018-01-06T12:41:41.085Z,97981.13
2018-01-06T12:44:09.372Z,97974.88
2018-01-06T12:46:37.640Z,97977.38
2018-01-06T12:49:05.949Z,97976.41
2018-01-06T12:51:34.259Z,97979.45
2018-01-06T12:54:02.543Z,97980.42
2018-01-06T12:56:30.840Z,97985.02
2018-01-06T12:58:59.129Z,97978.92
2018-01-06T13:01:27.408Z,97987.00
2018-01-06T13:03:55.723Z,97996.22
2018-01-06T13:06:24.019Z,97986.25
2018-01-06T13:08:52.283Z,97989.45
2018-01-06T13:11:20.605Z,97996.52
2018-01-06T13:13:48.875Z,98001.55
2018-01-06T13:16:17.178Z,98006.39
2018-01-06T13:18:45.477Z,98005.63
2018-01-06T13:21:13.759Z,98009.33
2018-01-06T13:23:42.086Z,98007.72
2018-01-06T13:26:10.412Z,98008.41
2018-01-06T13:28:38.703Z,98007.00
2018-01-06T13:31:06.987Z,98012.88
2018-01-06T13:33:35.300Z,98019.02
2018-01-06T13:36:03.699Z,98021.39
2018-01-06T13:38:31.969Z,98028.33
2018-01-06T13:41:00.231Z,98028.28
2018-01-06T13:43:28.537Z,98029.37
2018-01-06T13:45:57.831Z,98023.48
2018-01-06T13:48:26.162Z,98049.69
2018-01-06T13:50:54.669Z,98046.58
2018-01-06T13:53:22.959Z,98049.37
2018-01-06T13:55:51.236Z,98042.94
2018-01-06T13:58:20.839Z,98051.98
2018-01-06T14:00:49.219Z,98054.34
2018-01-06T14:03:17.473Z,98054.93
2018-01-06T14:05:45.798Z,98053.67
2018-01-06T14:08:14.079Z,98059.49
2018-01-06T14:10:42.412Z,98057.44
2018-01-06T14:13:10.657Z,98061.66
2018-01-06T14:15:38.975Z,98064.19
2018-01-06T14:18:07.627Z,98066.05
2018-01-06T14:20:36.052Z,98054.78
2018-01-06T14:23:04.334Z,98076.76
2018-01-06T14:25:32.607Z,98072.66
2018-01-06T14:28:00.901Z,98076.39
2018-01-06T14:30:29.449Z,98078.67
2018-01-06T14:32:57.713Z,98079.13
2018-01-06T14:35:26.021Z,98083.75
2018-01-06T14:37:55.268Z,98077.38
2018-01-06T14:40:23.525Z,98092.95
2018-01-06T14:42:51.906Z,98093.48
2018-01-06T14:45:20.194Z,98095.36
2018-01-06T14:47:48.546Z,98096.03
2018-01-06T14:50:16.805Z,98102.02
2018-01-06T14:52:45.116Z,98102.31
2018-01-06T14:55:13.410Z,98102.58
2018-01-06T14:57:41.741Z,98112.63
2018-01-06T15:00:10.051Z,98120.53
2018-01-06T15:02:38.357Z,98120.95
2018-01-06T15:05:06.652Z,98115.86
2018-01-06T15:07:35.007Z,98113.84
2018-01-06T15:10:04.163Z,98105.21
2018-01-06T15:12:32.453Z,98110.41
2018-01-06T15:15:00.744Z,98123.29
2018-01-06T15:17:29.030Z,98123.27
2018-01-06T15:19:57.321Z,98122.80
2018-01-06T15:22:25.610Z,98122.44
2018-01-06T15:24:53.932Z,98114.47
2018-01-06T15:27:22.207Z,98125.37
2018-01-06T15:29:50.519Z,98127.78
2018-01-06T15:32:18.790Z,98114.00
2018-01-06T15:34:47.088Z,98132.19
2018-01-06T15:37:15.415Z,98128.62
2018-01-06T15:39:43.733Z,98132.41
2018-01-06T15:42:12.019Z,98138.61
2018-01-06T15:44:40.360Z,98138.25
2018-01-06T15:47:08.688Z,98137.77
2018-01-06T15:49:36.989Z,98137.36
2018-01-06T15:52:05.278Z,98141.91
2018-01-06T15:54:33.583Z,98132.55
2018-01-06T15:57:01.878Z,98147.63
2018-01-06T15:59:30.159Z,98145.65
2018-01-06T16:01:58.480Z,98149.54
2018-01-06T16:04:26.774Z,98142.81
2018-01-06T16:06:55.075Z,98156.41
2018-01-06T16:09:23.349Z,98161.20
2018-01-06T16:11:51.602Z,98162.60
2018-01-06T16:14:19.914Z,98150.58
2018-01-06T16:16:48.182Z,98165.70
2018-01-06T16:19:16.520Z,98165.33
2018-01-06T16:21:44.773Z,98165.67
2018-01-06T16:24:13.101Z,98168.11
2018-01-06T16:26:41.322Z,98165.20
2018-01-06T16:29:09.623Z,98173.92
2018-01-06T16:31:37.900Z,98171.83
2018-01-06T16:34:06.232Z,98180.37
2018-01-06T16:36:35.255Z,98185.63
2018-01-06T16:39:04.385Z,98175.45
2018-01-06T16:41:33.400Z,98173.44
2018-01-06T16:44:01.995Z,98179.97
2018-01-06T16:46:30.357Z,98182.77
2018-01-06T16:48:58.620Z,98195.66
2018-01-06T16:51:26.936Z,98193.42
2018-01-06T16:53:55.386Z,98200.67
2018-01-06T16:56:23.689Z,98197.41
2018-01-06T16:58:52.067Z,98202.56
2018-01-06T17:01:20.386Z,98199.59
2018-01-06T17:03:48.675Z,98208.66
2018-01-06T17:06:17.052Z,98208.03
2018-01-06T17:08:45.356Z,98210.31
2018-01-06T17:11:13.625Z,98212.39
2018-01-06T17:13:41.988Z,98214.12
2018-01-06T17:16:10.262Z,98212.42
2018-01-06T17:18:38.635Z,98207.56
2018-01-06T17:21:06.876Z,98211.20
2018-01-06T17:23:35.212Z,98208.58
2018-01-06T17:26:03.975Z,98211.51
2018-01-06T17:28:32.284Z,98216.79
2018-01-06T17:31:00.601Z,98214.70
2018-01-06T17:33:28.915Z,98212.85
2018-01-06T17:35:57.191Z,98210.78
2018-01-06T17:38:25.505Z,98216.22
2018-01-06T17:40:54.146Z,98225.52
2018-01-06T17:43:22.429Z,98225.06
2018-01-06T17:45:50.877Z,98218.75
2018-01-06T17:48:19.231Z,98224.64
2018-01-06T17:50:47.536Z,98220.84
2018-01-06T17:53:15.839Z,98225.63
2018-01-06T17:55:44.142Z,98220.40
2018-01-06T17:58:12.484Z,98223.15
2018-01-06T18:00:40.764Z,98230.19
2018-01-06T18:03:09.086Z,98231.09
2018-01-06T18:05:37.441Z,98233.31
2018-01-06T18:08:05.754Z,98235.85
2018-01-06T18:10:34.012Z,98236.23
2018-01-06T18:13:02.387Z,98237.97
2018-01-06T18:15:30.936Z,98242.04
2018-01-06T18:17:59.245Z,98242.32
2018-01-06T18:20:27.534Z,98252.20
2018-01-06T18:22:56.329Z,98249.30
2018-01-06T18:25:24.592Z,98246.40
2018-01-06T18:27:52.910Z,98243.05
2018-01-06T18:30:21.243Z,98250.33
2018-01-06T18:32:49.528Z,98252.67
2018-01-06T18:35:19.740Z,98252.31
2018-01-06T18:37:47.992Z,98256.16
2018-01-06T18:40:16.326Z,98252.53
2018-01-06T18:42:44.594Z,98252.12
2018-01-06T18:45:12.948Z,98259.23
2018-01-06T18:47:42.971Z,98262.05
2018-01-06T18:50:11.302Z,98273.78
2018-01-06T18:52:39.639Z,98273.58
2018-01-06T18:55:07.933Z,98256.03
2018-01-06T18:57:36.734Z,98291.77
2018-01-06T19:00:05.076Z,98285.03
2018-01-06T19:02:33.358Z,98287.05
2018-01-06T19:05:01.686Z,98291.27
2018-01-06T19:07:29.992Z,98289.44
2018-01-06T19:09:59.104Z,98299.44
2018-01-06T19:12:28.302Z,98297.94
2018-01-06T19:14:56.606Z,98290.17
2018-01-06T19:17:24.846Z,98296.28
2018-01-06T19:19:53.134Z,98298.66
2018-01-06T19:22:21.420Z,98307.31
2018-01-06T19:24:49.686Z,98301.83
2018-01-06T19:27:18.008Z,98309.83
2018-01-06T19:29:46.283Z,98303.97
2018-01-06T19:32:14.626Z,98317.17
2018-01-06T19:34:42.905Z,98316.80
2018-01-06T19:37:11.192Z,98329.49
2018-01-06T19:39:39.456Z,98332.20
2018-01-06T19:42:07.796Z,98334.65
2018-01-06T19:44:36.084Z,98335.56
2018-01-06T19:47:05.407Z,98344.18
2018-01-06T19:49:33.679Z,98336.38
2018-01-06T19:52:01.935Z,98337.16
2018-01-06T19:54:30.232Z,98341.23
2018-01-06T19:56:58.487Z,98348.39
2018-01-06T19:59:26.792Z,98354.08
2018-01-06T20:01:55.074Z,98357.39
2018-01-06T20:04:23.392Z,98360.02
2018-01-06T20:06:51.663Z,98357.36
2018-01-06T20:09:19.967Z,98342.06
2018-01-06T20:11:48.232Z,98350.36
2018-01-06T20:14:16.545Z,98354.95
2018-01-06T20:16:44.831Z,98365.20
2018-01-06T20:19:13.120Z,98368.04
2018-01-06T20:21:41.392Z,98366.25
2018-01-06T20:24:10.226Z,98377.27
2018-01-06T20:26:38.486Z,98373.16
2018-01-06T20:29:06.770Z,98378.84
2018-01-06T20:31:35.063Z,98385.15
2018-01-06T20:34:03.330Z,98386.67
2018-01-06T20:36:31.630Z,98387.39
2018-01-06T20:39:00.203Z,98392.33
2018-01-06T20:41:28.473Z,98395.61
2018-01-06T20:43:56.742Z,98391.41
2018-01-06T20:46:25.062Z,98394.45
2018-01-06T20:48:53.325Z,98392.00
2018-01-06T20:51:21.993Z,98402.82
2018-01-06T20:53:50.267Z,98403.45
2018-01-06T20:56:18.568Z,98409.02
2018-01-06T20:58:46.871Z,98421.81
2018-01-06T21:01:15.158Z,98419.45
2018-01-06T21:03:43.482Z,98424.45
2018-01-06T21:06:12.191Z,98424.52
2018-01-06T21:08:40.505Z,98423.30
2018-01-06T21:11:08.788Z,98418.01
2018-01-06T21:13:37.081Z,98426.27
2018-01-06T21:16:05.359Z,98433.75
2018-01-06T21:18:33.655Z,98431.78
2018-01-06T21:21:01.929Z,98437.19
2018-01-06T21:23:30.338Z,98433.86
2018-01-06T21:25:58.567Z,98432.94
2018-01-06T21:28:26.865Z,98438.11
2018-01-06T21:30:55.185Z,98442.62
2018-01-06T21:33:23.494Z,98430.92
2018-01-06T21:35:51.858Z,98428.05
2018-01-06T21:38:20.151Z,98438.95
2018-01-06T21:40:48.452Z,98446.70
2018-01-06T21:43:16.719Z,98444.88
2018-01-06T21:45:45.053Z,98451.63
2018-01-06T21:48:13.332Z,98462.89
2018-01-06T21:50:41.723Z,98472.88
2018-01-06T21:53:10.033Z,98486.47
2018-01-06T21:55:39.534Z,98476.22
2018-01-06T21:58:07.840Z,98486.86
2018-01-06T22:00:36.148Z,98486.22
2018-01-06T22:03:04.484Z,98494.65
2018-01-06T22:05:33.978Z,98503.08
2018-01-06T22:08:02.347Z,98496.92
2018-01-06T22:10:30.690Z,98496.23
2018-01-06T22:12:59.015Z,98499.25
2018-01-06T22:15:27.367Z,98500.57
2018-01-06T22:17:55.960Z,98500.05
2018-01-06T22:20:24.234Z,98503.77
2018-01-06T22:22:52.562Z,98506.37
2018-01-06T22:25:21.015Z,98511.12
2018-01-06T22:27:49.417Z,98518.14
2018-01-06T22:30:17.742Z,98516.00
2018-01-06T22:32:46.039Z,98526.03
2018-01-06T22:35:14.396Z,98535.11
2018-01-06T22:37:42.694Z,98543.30
2018-01-06T22:40:11.063Z,98546.58
2018-01-06T22:42:39.347Z,98543.17
2018-01-06T22:45:08.146Z,98538.29
2018-01-06T22:47:36.924Z,98535.38
2018-01-06T22:50:05.234Z,98541.97
2018-01-06T22:52:33.541Z,98543.42
2018-01-06T22:55:02.864Z,98552.01
2018-01-06T22:57:31.766Z,98541.18
2018-01-06T23:00:00.085Z,98547.92
2018-01-06T23:02:28.840Z,98545.41
2018-01-06T23:04:57.220Z,98535.02
2018-01-06T23:07:26.264Z,98537.09
2018-01-06T23:09:54.698Z,98540.80
2018-01-06T23:12:23.254Z,98552.14
2018-01-06T23:14:51.549Z,98553.06
2018-01-06T23:17:19.876Z,98556.48
2018-01-06T23:19:48.199Z,98568.75
2018-01-06T23:22:16.520Z,98569.53
2018-01-06T23:24:44.850Z,98564.27
2018-01-06T23:27:13.136Z,98561.88
2018-01-06T23:29:41.457Z,98571.78
2018-01-06T23:32:09.783Z,98570.28
2018-01-06T23:34:38.072Z,98569.75
2018-01-06T23:37:06.434Z,98573.32
2018-01-06T23:39:34.712Z,98570.73
2018-01-06T23:42:03.388Z,98567.30
2018-01-06T23:44:31.692Z,98572.27
2018-01-06T23:46:59.995Z,98574.13
2018-01-06T23:49:28.934Z,98572.70
2018-01-06T23:51:57.211Z,98576.66
2018-01-06T23:54:25.506Z,98580.36
2018-01-06T23:56:53.780Z,98580.08
2018-01-06T23:59:22.088Z,98591.56
